Aviation Digital Data Service (ADDS)

Output produced by METARs form (0908 UTC 02 September 2014)
found at http://aviationweather.gov/adds/metars/
 
KFAY 020520Z 0206/0306 22007KT P6SM FEW060 SCT150 
     FM020800 22002KT P6SM SCT006 
     FM021500 21009KT P6SM SCT050